Updated27/10/2020 2:49am 
 

Nearby Airport METAR Reports

 

KVSF - Springfield, Vermont, USA
Distance from station: WSW 8mi, 12km
Updated: 10/27/2020 1:54am
Overcast
Overcast
 Wind from calm
Wind: Calm
Temperature: 45°F , 7°C
Dew Point: 43°F , 6°C
Humidity: 93%
Barometer: 30.09 inHg , 1019 hPa
Clouds: Overcast
Visibility: 10 miles , 16 km
Cloud details: Few Clouds 200 ft
Overcast 4300 ft
2020/10/27 05:54 KVSF 270554Z AUTO 00000KT 10SM FEW002 OVC043 07/06 A3009 RMK AO2 SLP193 60001 T00720061 10072 20061 53001 $
KLEB - Lebanon, New Hampshire, USA
Distance from station: N 18mi, 29km
Updated: 10/27/2020 2:28am
Mist, Overcast
Mist, Overcast
 Wind from N
Wind: N 3 mph , 6 km/h
Temperature: 46°F , 8°C
Dew Point: 45°F , 7°C
Humidity: 93%
Barometer: 30.10 inHg , 1019.3 hPa
Summary: Mist
Clouds: Overcast
Visibility: 6 miles , 10 km
Cloud details: Overcast 100 ft
2020/10/27 06:28 KLEB 270628Z AUTO 35003KT 6SM BR OVC001 08/07 A3010 RMK AO2 T00830067
KRUT - Rutland State, Vermont, USA
Distance from station: WNW 31mi, 50km
Updated: 10/27/2020 1:56am
Light rain, Mist, Overcast
Light rain, Mist, Overcast
 Wind from calm
Wind: Calm
Temperature: 46°F , 8°C
Dew Point: 46°F , 8°C
Humidity: 100%
Barometer: 30.10 inHg , 1019.3 hPa
Summary: Light rain, Mist
Clouds: Overcast
Visibility: 6 miles , 10 km
Cloud details: Mostly cloudy 800 ft
Overcast 1200 ft
2020/10/27 05:56 KRUT 270556Z AUTO 00000KT 6SM -RA BR BKN008 OVC012 08/08 A3010 RMK AO2 CIG 006V010 SLP192 P0000 60000 T00830083 10083 20078 53003 $
 
KEEN - Keene/Dillant, New Hampshire, USA
Distance from station: S 34mi, 55km
Updated: 10/27/2020 2:46am
Overcast
Overcast
 Wind from N
Wind: N 3 mph , 6 km/h
Temperature: 46°F , 8°C
Dew Point: 46°F , 8°C
Humidity: 100%
Barometer: 30.09 inHg , 1019 hPa
Clouds: Overcast
Visibility: 8 miles , 13 km
Cloud details: Overcast 400 ft
2020/10/27 06:46 KEEN 270646Z AUTO 36003KT 8SM OVC004 08/08 A3009 RMK AO2 CIG 003V007 PNO $
K1P1 - Plymouth, New Hampshire, USA
Distance from station: NE 42mi, 67km
Updated: 10/27/2020 2:35am
Overcast
Overcast
 Wind from WNW
Wind: WNW 8 mph , 13 km/h
Temperature: 46°F , 8°C
Wind Chill: 42°F , 6°C
Dew Point: 45°F , 7°C
Humidity: 93%
Barometer: 30.06 inHg , 1017.9 hPa
Clouds: Overcast
Visibility: 10 miles , 16 km
Cloud details: Partly cloudy 5000 ft
Overcast 8000 ft
2020/10/27 06:35 K1P1 270635Z AUTO 29007KT 10SM SCT050 OVC080 08/07 A3006 RMK AO2 T00750065
KAFN - Jaffrey, New Hampshire, USA
Distance from station: SSE 44mi, 70km
Updated: 10/27/2020 2:03am
Mist, Overcast
Mist, Overcast
 Wind from calm
Wind: Calm
Temperature: 46°F , 8°C
Dew Point: 46°F , 8°C
Humidity: 100%
Barometer: 30.07 inHg , 1018.3 hPa
Summary: Mist
Clouds: Overcast
Visibility: 4 miles , 6 km
Cloud details: Overcast 200 ft
2020/10/27 06:03 KAFN 270603Z AUTO 00000KT 4SM BR OVC002 08/08 A3007 RMK AO2 T00830078
 
KCON - Concord, New Hampshire, USA
Distance from station: ESE 45mi, 73km
Updated: 10/27/2020 2:46am
Overcast
Overcast
 Wind from calm
Wind: Calm
Temperature: 45°F , 7°C
Dew Point: 43°F , 6°C
Humidity: 93%
Barometer: 30.06 inHg , 1017.9 hPa
Clouds: Overcast
Visibility: 10 miles , 16 km
Cloud details: Mostly cloudy 600 ft
Overcast 3400 ft
2020/10/27 06:46 KCON 270646Z AUTO 00000KT 10SM BKN006 OVC034 07/06 A3006 RMK AO2 CIG 003V007
KLCI - Laconia Muni, New Hampshire, USA
Distance from station: ENE 49mi, 80km
Updated: 10/27/2020 1:56am
Overcast
Overcast
 Wind from WSW
Wind: WSW 7 mph , 11 km/h
Temperature: 45°F , 7°C
Wind Chill: 41°F , 5°C
Dew Point: 43°F , 6°C
Humidity: 93%
Barometer: 30.05 inHg , 1017.6 hPa
Clouds: Overcast
Visibility: 10 miles , 16 km
Cloud details: Overcast 4000 ft
2020/10/27 05:56 KLCI 270556Z AUTO 24006KT 10SM OVC040 07/06 A3005 RMK AO2 SLP181 60003 T00670061 10067 20050 58005
KDDH - Bennington, Vermont, USA
Distance from station: SW 55mi, 89km
Updated: 10/27/2020 1:54am
Mist, Overcast
Mist, Overcast
 Wind from W
Wind: W 8 mph , 13 km/h
Temperature: 48°F , 9°C
Wind Chill: 44°F , 7°C
Dew Point: 46°F , 8°C
Humidity: 94%
Barometer: 30.10 inHg , 1019.3 hPa
Summary: Mist
Clouds: Overcast
Visibility: 5 miles , 8 km
Cloud details: Mostly cloudy 900 ft
Overcast 1200 ft
2020/10/27 05:54 KDDH 270554Z AUTO 27007KT 5SM BR BKN009 OVC012 09/08 A3010 RMK AO2 RAB02E11B32E47 SLP194 P0001 60005 T00940078 10128 20094 51003
 
K6B0 - Middlebury, Vermont, USA
Distance from station: NW 56mi, 90km
Updated: 10/27/2020 2:35am
Light drizzle, Overcast
Light drizzle, Overcast
 Wind from N
Wind: N 9 mph , 15 km/h
Temperature: 43°F , 6°C
Wind Chill: 38°F , 3°C
Dew Point: 39°F , 4°C
Humidity: 87%
Barometer: 30.14 inHg , 1020.7 hPa
Summary: Light Drizzle
Clouds: Overcast
Visibility: 10 miles , 16 km
Cloud details: Overcast 4600 ft
2020/10/27 06:35 K6B0 270635Z AUTO 36008KT 10SM -DZ OVC046 06/04 A3014 RMK AO2 T00550036
KMHT - Manchester, New Hampshire, USA
Distance from station: ESE 56mi, 90km
Updated: 10/27/2020 2:26am
Mist, Overcast
Mist, Overcast
 Wind from N
Wind: N 6 mph , 9 km/h
Temperature: 46°F , 8°C
Wind Chill: 43°F , 6°C
Dew Point: 45°F , 7°C
Humidity: 93%
Barometer: 30.06 inHg , 1017.9 hPa
Summary: Mist
Clouds: Overcast
Visibility: 3 miles , 5 km
Cloud details: Overcast 600 ft
2020/10/27 06:26 KMHT 270626Z 35005KT 3SM BR OVC006 08/07 A3006 RMK AO2 SFC VIS 4 T00830067
KORE - Orange, Massachusetts, USA
Distance from station: S 56mi, 90km
Updated: 10/27/2020 2:43am
Overcast
Overcast
 Wind from NNW
Wind: NNW 3 mph , 6 km/h
Temperature: 48°F , 9°C
Dew Point: 46°F , 8°C
Humidity: 94%
Barometer: 30.09 inHg , 1019 hPa
Clouds: Overcast
Visibility: 9 miles , 14 km
Cloud details: Mostly cloudy 600 ft
Mostly cloudy 1700 ft
Overcast 2200 ft
2020/10/27 06:43 KORE 270643Z AUTO 33003KT 9SM BKN006 BKN017 OVC022 09/08 A3009 RMK AO2 T00890083
 
KMPV - Montpelier/Barre, Vermont, USA
Distance from station: N 58mi, 93km
Updated: 10/27/2020 2:34am
Overcast
Overcast
 Wind from NW
Wind: NW 9 mph , 15 km/h
Temperature: 39°F , 4°C
Wind Chill: 33°F , 1°C
Dew Point: 39°F , 4°C
Humidity: 100%
Barometer: 30.17 inHg , 1021.7 hPa
Clouds: Overcast
Visibility: 10 miles , 16 km
Cloud details: Few Clouds 900 ft
Partly cloudy 4600 ft
Overcast 5500 ft
2020/10/27 06:34 KMPV 270634Z AUTO 31008KT 10SM FEW009 SCT046 OVC055 04/04 A3017 RMK AO2 RAE00 P0000 T00440039
KASH - Nashua/Boire Fld, New Hampshire, USA
Distance from station: SE 59mi, 95km
Updated: 10/27/2020 1:56am
Overcast
Overcast
 Wind from WNW
Wind: WNW 3 mph , 6 km/h
Temperature: 46°F , 8°C
Dew Point: 46°F , 8°C
Humidity: 100%
Clouds: Overcast
Visibility: 10 miles , 16 km
Cloud details: Few Clouds 300 ft
Mostly cloudy 2600 ft
Overcast 3200 ft
2020/10/27 05:56 KASH 270556Z AUTO 29003KT 10SM FEW003 BKN026 OVC032 08/08 RMK AO2 SLPNO T00830083 10083 20078 $
KAQW - North Adams, Massachusetts, USA
Distance from station: SW 62mi, 99km
Updated: 10/27/2020 1:52am
Light rain, Overcast
Light rain, Overcast
 Wind from WNW
Wind: WNW 7 mph , 11 km/h
Temperature: 52°F , 11°C
Dew Point: 48°F , 9°C
Humidity: 88%
Barometer: 30.09 inHg , 1019 hPa
Summary: Light rain
Clouds: Overcast
Visibility: 10 miles , 16 km
Cloud details: Mostly cloudy 1800 ft
Overcast 2600 ft
2020/10/27 05:52 KAQW 270552Z AUTO 29006KT 10SM -RA BKN018 OVC026 11/09 A3009 RMK AO2 RAB16 SLP194 P0001 60002 T01060089 10117 20094 51006
 
KGFL - Glens Falls, New York, USA
Distance from station: W 63mi, 101km
Updated: 10/27/2020 1:53am
Light rain, Mist, Overcast
Light rain, Mist, Overcast
 Wind from calm
Wind: Calm
Temperature: 46°F , 8°C
Dew Point: 45°F , 7°C
Humidity: 93%
Barometer: 30.12 inHg , 1020 hPa
Summary: Light rain, Mist
Clouds: Overcast
Visibility: 5 miles , 8 km
Cloud details: Overcast 3200 ft
2020/10/27 05:53 KGFL 270553Z AUTO 00000KT 5SM -RA BR OVC032 08/07 A3012 RMK AO2 SLP205 P0002 60003 T00830072 10083 20072 51011
KFIT - Fitchburg, Massachusetts, USA
Distance from station: SSE 65mi, 105km
Updated: 10/27/2020 2:08am
Mist, Overcast
Mist, Overcast
 Wind from NNW
Wind: NNW 3 mph , 6 km/h
Temperature: 50°F , 10°C
Dew Point: 50°F , 10°C
Humidity: 100%
Barometer: 30.07 inHg , 1018.3 hPa
Summary: Mist
Clouds: Overcast
Visibility: 5 miles , 8 km
Cloud details: Few Clouds 2200 ft
Overcast 2900 ft
2020/10/27 06:08 KFIT 270608Z AUTO 34003KT 5SM BR FEW022 OVC029 10/10 A3007 RMK AO2 T01000100
KDAW - Rochester, New Hampshire, USA
Distance from station: E 73mi, 118km
Updated: 10/27/2020 2:44am
Overcast
Overcast
 Wind from varies
Wind: varies 3 mph , 6 km/h
Temperature: 46°F , 8°C
Dew Point: 45°F , 7°C
Humidity: 93%
Barometer: 30.05 inHg , 1017.6 hPa
Clouds: Overcast
Visibility: 10 miles , 16 km
Cloud details: Partly cloudy 2900 ft
Mostly cloudy 4000 ft
Overcast 9000 ft
2020/10/27 06:44 KDAW 270644Z AUTO VRB03KT 10SM SCT029 BKN040 OVC090 08/07 A3005 RMK AO2 T00780067
 
K1V4 - St. Johnsbury, Vermont, USA
Distance from station: NNE 74mi, 119km
Updated: 10/27/2020 1:54am

 
Temperature: 45°F , 7°C
Dew Point: 43°F , 6°C
Humidity: 93%
Barometer: 30.09 inHg , 1019 hPa
2020/10/27 05:54 K1V4 270554Z AUTO 07/06 A3009 RMK AO1 SLP193 P0001 60005 T00670056 10067 20061 53006
KLWM - Lawrence, Massachusetts, USA
Distance from station: SE 77mi, 124km
Updated: 10/27/2020 2:44am
Mist, Overcast
Mist, Overcast
 Wind from W
Wind: W 3 mph , 6 km/h
Temperature: 48°F , 9°C
Dew Point: 48°F , 9°C
Humidity: 100%
Barometer: 30.09 inHg , 1019 hPa
Summary: Mist
Clouds: Overcast
Visibility: 4 miles , 6 km
Cloud details: Mostly cloudy 400 ft
Overcast 1300 ft
2020/10/27 06:44 KLWM 270644Z AUTO 26003KT 4SM BR BKN004 OVC013 09/09 A3009 RMK AO2 T00890089



Flag Counter
free counter page views since 4/29/2009